Terminal Aerodrome Forecast
Issued by NWS

Current Version | Previous Version | Text Only | Print | Product List | Glossary On
Versions: 1 2 3 4 5 6 7 8 9 10 11 12 13
000
FTUS42 KTBW 172330
TAFLAL
TAF
KLAL 172330Z 1800/1824 30006KT P6SM VCSH SCT040 BKN080
     FM180200 VRB03KT P6SM FEW025 BKN250
     FM181500 20005KT P6SM SCT030 SCT250
     FM181800 25007KT P6SM VCTS SCT040CB SCT250
      AMD NOT SKED 1802/1811=

USA.gov is the U.S. government's official web portal to all federal, state and local government web resources and services.